Time,TemperatureF,DewpointF,PressureIn,WindDirection,WindDirectionDegrees,WindSpeedMPH,WindSpeedGustMPH,Humidity,HourlyPrecipIn,Conditions,Clouds,dailyrainin,SoftwareType,DateUTC
2013-01-09 00:00:00,30.6,26.9,30.38,West,271,0.0,0.0,86,0.00,,,0.00,Wunderground v.1.15,2013-01-09 05:00:00,
2013-01-09 00:05:00,30.6,26.9,30.38,West,271,0.0,0.0,86,0.00,,,0.00,Wunderground v.1.15,2013-01-09 05:05:00,
2013-01-09 00:10:00,30.3,26.6,30.38,West,271,0.0,0.0,86,0.00,,,0.00,Wunderground v.1.15,2013-01-09 05:10:00,
2013-01-09 00:20:00,30.1,26.7,30.38,West,271,0.0,0.0,87,0.00,,,0.00,Wunderground v.1.15,2013-01-09 05:20:00,
2013-01-09 00:30:00,29.9,26.5,30.38,West,271,0.0,0.0,87,0.00,,,0.00,Wunderground v.1.15,2013-01-09 05:30:00,
2013-01-09 00:40:00,29.7,26.6,30.38,West,274,0.0,0.0,88,0.00,,,0.00,Wunderground v.1.15,2013-01-09 05:40:00,
2013-01-09 00:50:00,29.6,26.5,30.38,West,262,0.0,0.0,88,0.00,,,0.00,Wunderground v.1.15,2013-01-09 05:50:00,
2013-01-09 01:00:00,29.4,26.3,30.38,West,262,0.0,0.0,88,0.00,,,0.00,Wunderground v.1.15,2013-01-09 06:00:00,
2013-01-09 01:10:00,29.2,26.1,30.38,West,262,0.0,0.0,88,0.00,,,0.00,Wunderground v.1.15,2013-01-09 06:10:00,
2013-01-09 01:20:00,29.0,25.9,30.38,West,262,0.0,0.0,88,0.00,,,0.00,Wunderground v.1.15,2013-01-09 06:20:00,
2013-01-09 01:30:00,28.8,26.0,30.38,West,262,0.0,0.0,89,0.00,,,0.00,Wunderground v.1.15,2013-01-09 06:30:00,
2013-01-09 01:40:00,28.5,25.7,30.38,West,262,0.0,0.0,89,0.00,,,0.00,Wunderground v.1.15,2013-01-09 06:40:00,
2013-01-09 01:50:00,28.4,25.6,30.38,West,262,0.0,0.0,89,0.00,,,0.00,Wunderground v.1.15,2013-01-09 06:50:00,
2013-01-09 02:00:00,28.2,25.4,30.38,West,262,0.0,0.0,89,0.00,,,0.00,Wunderground v.1.15,2013-01-09 07:00:00,
2013-01-09 02:10:00,28.0,25.2,30.38,West,262,0.0,0.0,89,0.00,,,0.00,Wunderground v.1.15,2013-01-09 07:10:00,
2013-01-09 02:20:00,27.9,25.3,30.38,West,262,0.0,0.0,90,0.00,,,0.00,Wunderground v.1.15,2013-01-09 07:20:00,
2013-01-09 02:30:00,27.8,25.2,30.38,West,262,0.0,0.0,90,0.00,,,0.00,Wunderground v.1.15,2013-01-09 07:30:00,
2013-01-09 02:40:00,27.5,25.0,30.39,West,262,0.0,0.0,90,0.00,,,0.00,Wunderground v.1.15,2013-01-09 07:40:00,
2013-01-09 02:50:00,27.4,24.9,30.38,West,262,0.0,0.0,90,0.00,,,0.00,Wunderground v.1.15,2013-01-09 07:50:00,
2013-01-09 03:00:00,27.3,24.8,30.39,North,-999,0.0,0.0,90,0.00,,,-99.99,WeatherLink 6.0.2,2013-01-09 08:00:00,
2013-01-09 03:10:00,27.2,24.7,30.39,NW,313,0.0,0.0,90,0.00,,,0.00,Wunderground v.1.15,2013-01-09 08:10:00,
2013-01-09 03:20:00,27.0,24.5,30.38,NW,313,0.0,0.0,90,0.00,,,0.00,Wunderground v.1.15,2013-01-09 08:20:00,
2013-01-09 03:30:00,27.0,24.7,30.38,NW,313,0.0,0.0,91,0.00,,,0.00,Wunderground v.1.15,2013-01-09 08:30:00,
2013-01-09 03:40:00,27.1,24.8,30.37,NNW,345,0.0,0.0,91,0.00,,,0.00,Wunderground v.1.15,2013-01-09 08:40:00,
2013-01-09 03:50:00,27.1,24.6,30.37,NNW,345,0.0,0.0,90,0.00,,,0.00,Wunderground v.1.15,2013-01-09 08:50:00,
2013-01-09 04:00:00,27.0,24.7,30.37,NNW,345,0.0,0.0,91,0.00,,,0.00,Wunderground v.1.15,2013-01-09 09:00:00,
2013-01-09 04:10:00,26.9,24.4,30.37,NNW,345,0.0,0.0,90,0.00,,,0.00,Wunderground v.1.15,2013-01-09 09:10:00,
2013-01-09 04:20:00,26.6,24.1,30.36,NNW,345,0.0,0.0,90,0.00,,,0.00,Wunderground v.1.15,2013-01-09 09:20:00,
2013-01-09 04:30:00,26.7,24.4,30.36,WSW,258,0.0,0.0,91,0.00,,,0.00,Wunderground v.1.15,2013-01-09 09:30:00,
2013-01-09 04:40:00,26.7,24.2,30.36,WSW,258,0.0,0.0,90,0.00,,,0.00,Wunderground v.1.15,2013-01-09 09:40:00,
2013-01-09 04:50:00,26.6,24.1,30.36,WSW,258,0.0,0.0,90,0.00,,,0.00,Wunderground v.1.15,2013-01-09 09:50:00,
2013-01-09 05:00:00,26.5,24.2,30.36,West,267,0.0,0.0,91,0.00,,,0.00,Wunderground v.1.15,2013-01-09 10:00:00,
2013-01-09 05:10:00,26.6,24.3,30.36,NNE,33,1.0,1.0,91,0.00,,,0.00,Wunderground v.1.15,2013-01-09 10:10:00,
2013-01-09 05:20:00,26.9,24.6,30.37,NE,34,1.0,1.0,91,0.00,,,0.00,Wunderground v.1.15,2013-01-09 10:20:00,
2013-01-09 05:30:00,27.1,24.8,30.36,NE,34,0.0,0.0,91,0.00,,,0.00,Wunderground v.1.15,2013-01-09 10:30:00,
2013-01-09 05:40:00,26.9,24.4,30.37,NE,34,0.0,0.0,90,0.00,,,0.00,Wunderground v.1.15,2013-01-09 10:40:00,
2013-01-09 05:50:00,26.7,24.2,30.37,NE,34,0.0,0.0,90,0.00,,,0.00,Wunderground v.1.15,2013-01-09 10:50:00,
2013-01-09 06:00:00,26.6,24.1,30.36,NE,34,1.0,1.0,90,0.00,,,0.00,Wunderground v.1.15,2013-01-09 11:00:00,
2013-01-09 06:10:00,26.8,24.5,30.37,NE,34,1.0,1.0,91,0.00,,,0.00,Wunderground v.1.15,2013-01-09 11:10:00,
2013-01-09 06:20:00,26.9,24.4,30.36,NE,34,0.0,0.0,90,0.00,,,0.00,Wunderground v.1.15,2013-01-09 11:20:00,
2013-01-09 06:30:00,26.9,24.4,30.37,NE,34,1.0,1.0,90,0.00,,,0.00,Wunderground v.1.15,2013-01-09 11:30:00,
2013-01-09 06:40:00,26.9,24.4,30.37,NE,34,0.0,0.0,90,0.00,,,0.00,Wunderground v.1.15,2013-01-09 11:40:00,
2013-01-09 06:50:00,26.9,24.4,30.37,NE,34,0.0,0.0,90,0.00,,,0.00,Wunderground v.1.15,2013-01-09 11:50:00,
2013-01-09 07:00:00,26.9,24.4,30.38,NE,34,0.0,0.0,90,0.00,,,0.00,Wunderground v.1.15,2013-01-09 12:00:00,
2013-01-09 07:10:00,27.1,24.6,30.38,NE,34,1.0,1.0,90,0.00,,,0.00,Wunderground v.1.15,2013-01-09 12:10:00,
2013-01-09 07:20:00,27.2,24.7,30.38,NE,35,1.0,1.0,90,0.00,,,0.00,Wunderground v.1.15,2013-01-09 12:20:00,
2013-01-09 07:30:00,27.3,24.8,30.38,NE,45,1.0,3.0,90,0.00,,,-99.99,WeatherLink 6.0.2,2013-01-09 12:30:00,
2013-01-09 07:40:00,27.5,25.0,30.38,NE,45,1.0,1.0,90,0.00,,,0.00,Wunderground v.1.15,2013-01-09 12:40:00,
2013-01-09 07:50:00,27.6,24.8,30.38,NE,45,1.0,1.0,89,0.00,,,0.00,Wunderground v.1.15,2013-01-09 12:50:00,
2013-01-09 08:00:00,27.9,25.3,30.38,NE,45,1.0,1.0,90,0.00,,,0.00,Wunderground v.1.15,2013-01-09 13:00:00,
2013-01-09 08:10:00,28.2,25.4,30.37,NE,45,1.0,1.0,89,0.00,,,0.00,Wunderground v.1.15,2013-01-09 13:10:00,
2013-01-09 08:20:00,28.6,25.8,30.37,NE,45,1.0,1.0,89,0.00,,,0.00,Wunderground v.1.15,2013-01-09 13:20:00,
2013-01-09 08:30:00,29.1,26.3,30.38,NE,45,0.0,1.0,89,0.00,,,0.00,Wunderground v.1.15,2013-01-09 13:30:00,
2013-01-09 08:40:00,29.5,26.4,30.38,NE,45,0.0,0.0,88,0.00,,,0.00,Wunderground v.1.15,2013-01-09 13:40:00,
2013-01-09 08:50:00,30.2,27.1,30.38,NE,50,0.0,0.0,88,0.00,,,0.00,Wunderground v.1.15,2013-01-09 13:50:00,
2013-01-09 09:00:00,30.9,27.5,30.38,North,351,0.0,0.0,87,0.00,,,0.00,Wunderground v.1.15,2013-01-09 14:00:00,
2013-01-09 09:10:00,31.6,27.9,30.38,North,351,0.0,0.0,86,0.00,,,0.00,Wunderground v.1.15,2013-01-09 14:10:00,
2013-01-09 09:20:00,32.2,28.2,30.38,North,351,0.0,0.0,85,0.00,,,0.00,Wunderground v.1.15,2013-01-09 14:20:00,
2013-01-09 09:30:00,33.0,29.0,30.38,North,351,0.0,0.0,85,0.00,,,0.00,Wunderground v.1.15,2013-01-09 14:30:00,
2013-01-09 09:40:00,33.5,29.2,30.38,WSW,257,0.0,0.0,84,0.00,,,0.00,Wunderground v.1.15,2013-01-09 14:40:00,
2013-01-09 09:50:00,34.6,30.0,30.38,WSW,240,1.0,1.0,83,0.00,,,0.00,Wunderground v.1.15,2013-01-09 14:50:00,
2013-01-09 10:00:00,35.9,30.3,30.37,WSW,239,2.0,2.0,80,0.00,,,0.00,Wunderground v.1.15,2013-01-09 15:00:00,
2013-01-09 10:10:00,36.4,30.8,30.36,WSW,242,0.0,0.0,80,0.00,,,0.00,Wunderground v.1.15,2013-01-09 15:10:00,
2013-01-09 10:20:00,37.3,31.4,30.35,WSW,242,0.0,1.0,79,0.00,,,0.00,Wunderground v.1.15,2013-01-09 15:20:00,
2013-01-09 10:30:00,37.9,31.7,30.34,WSW,247,0.0,3.0,78,0.00,,,-99.99,WeatherLink 6.0.2,2013-01-09 15:30:00,
2013-01-09 10:40:00,38.6,32.0,30.33,North,351,1.0,1.0,77,0.00,,,0.00,Wunderground v.1.15,2013-01-09 15:40:00,
2013-01-09 10:50:00,39.7,32.8,30.32,North,356,0.0,1.0,76,0.00,,,0.00,Wunderground v.1.15,2013-01-09 15:50:00,
2013-01-09 11:00:00,40.4,33.1,30.31,NNW,346,0.0,0.0,75,0.00,,,0.00,Wunderground v.1.15,2013-01-09 16:00:00,
2013-01-09 11:10:00,41.5,33.5,30.28,North,1,1.0,1.0,73,0.00,,,0.00,Wunderground v.1.15,2013-01-09 16:10:00,
2013-01-09 11:20:00,42.3,34.3,30.28,WSW,238,0.0,2.0,73,0.00,,,0.00,Wunderground v.1.15,2013-01-09 16:20:00,
2013-01-09 11:30:00,43.2,34.4,30.28,WSW,239,2.0,2.0,71,0.00,,,0.00,Wunderground v.1.15,2013-01-09 16:30:00,
2013-01-09 11:40:00,44.3,35.1,30.30,South,180,2.0,6.0,70,0.00,,,0.00,Wunderground v.1.15,2013-01-09 16:40:00,
2013-01-09 11:50:00,45.0,35.1,30.29,SSW,209,2.0,2.0,68,0.00,,,0.00,Wunderground v.1.15,2013-01-09 16:50:00,
2013-01-09 12:00:00,45.2,34.9,30.28,SW,229,3.0,3.0,67,0.00,,,0.00,Wunderground v.1.15,2013-01-09 17:00:00,
2013-01-09 12:10:00,44.6,35.1,30.27,SW,227,1.0,1.0,69,0.00,,,0.00,Wunderground v.1.15,2013-01-09 17:10:00,
2013-01-09 12:20:00,44.0,34.8,30.25,SSW,205,1.0,1.0,70,0.00,,,0.00,Wunderground v.1.15,2013-01-09 17:20:00,
2013-01-09 12:30:00,44.0,34.8,30.25,South,188,2.0,3.0,70,0.00,,,0.00,Wunderground v.1.15,2013-01-09 17:30:00,
2013-01-09 12:40:00,43.9,35.1,30.23,South,186,1.0,1.0,71,0.00,,,0.00,Wunderground v.1.15,2013-01-09 17:40:00,
2013-01-09 12:50:00,43.8,35.0,30.24,SSW,198,1.0,1.0,71,0.00,,,0.00,Wunderground v.1.15,2013-01-09 17:50:00,
2013-01-09 13:00:00,44.2,35.4,30.24,SW,231,1.0,2.0,71,0.00,,,0.00,Wunderground v.1.15,2013-01-09 18:00:00,
2013-01-09 13:10:00,44.5,35.7,30.24,SW,223,2.0,2.0,71,0.00,,,0.00,Wunderground v.1.15,2013-01-09 18:10:00,
2013-01-09 13:20:00,44.3,34.8,30.25,SW,223,2.0,2.0,69,0.00,,,0.00,Wunderground v.1.15,2013-01-09 18:20:00,
2013-01-09 13:30:00,43.7,34.6,30.25,SW,228,2.0,3.0,70,0.00,,,0.00,Wunderground v.1.15,2013-01-09 18:30:00,
2013-01-09 13:40:00,43.5,34.4,30.25,SW,225,2.0,3.0,70,0.00,,,0.00,Wunderground v.1.15,2013-01-09 18:40:00,
2013-01-09 13:45:00,43.4,34.3,30.25,SW,217,2.0,3.0,70,0.00,,,0.00,Wunderground v.1.15,2013-01-09 18:45:00,
2013-01-09 13:50:00,43.5,35.1,30.25,SSW,212,2.0,2.0,72,0.00,,,0.00,Wunderground v.1.15,2013-01-09 18:50:00,
2013-01-09 13:55:00,43.5,34.4,30.25,SSW,205,1.0,2.0,70,0.00,,,0.00,Wunderground v.1.15,2013-01-09 18:55:00,
2013-01-09 14:00:00,43.4,34.3,30.25,SW,225,2.0,6.0,70,0.00,,,-99.99,WeatherLink 6.0.2,2013-01-09 19:00:00,
2013-01-09 14:10:00,43.0,33.9,30.23,SW,226,1.0,1.0,70,0.00,,,0.00,Wunderground v.1.15,2013-01-09 19:10:00,
2013-01-09 14:15:00,43.1,34.0,30.22,SSW,213,1.0,1.0,70,0.00,,,0.00,Wunderground v.1.15,2013-01-09 19:15:00,
2013-01-09 14:20:00,43.4,34.3,30.20,SSW,193,2.0,5.0,70,0.00,,,0.00,Wunderground v.1.15,2013-01-09 19:20:00,
2013-01-09 14:30:00,43.1,34.0,30.18,SW,225,1.0,5.0,70,0.00,,,-99.99,WeatherLink 6.0.2,2013-01-09 19:30:00,
2013-01-09 14:35:00,43.0,34.2,30.17,SW,235,1.0,2.0,71,0.00,,,0.00,Wunderground v.1.15,2013-01-09 19:35:00,
2013-01-09 14:40:00,43.0,34.2,30.17,WSW,242,1.0,2.0,71,0.00,,,0.00,Wunderground v.1.15,2013-01-09 19:40:00,
2013-01-09 14:50:00,43.5,35.4,30.14,WSW,240,1.0,2.0,73,0.00,,,0.00,Wunderground v.1.15,2013-01-09 19:50:00,
2013-01-09 15:00:00,44.0,35.6,30.14,WSW,252,1.0,2.0,72,0.00,,,0.00,Wunderground v.1.15,2013-01-09 20:00:00,
2013-01-09 15:10:00,44.5,36.0,30.16,WSW,240,1.0,3.0,72,0.00,,,0.00,Wunderground v.1.15,2013-01-09 20:10:00,
2013-01-09 15:20:00,44.9,36.4,30.15,SSW,210,2.0,2.0,72,0.00,,,0.00,Wunderground v.1.15,2013-01-09 20:20:00,
2013-01-09 15:30:00,44.9,36.1,30.15,SW,222,1.0,2.0,71,0.00,,,0.00,Wunderground v.1.15,2013-01-09 20:30:00,
2013-01-09 15:40:00,44.9,36.1,30.13,SSW,210,1.0,1.0,71,0.00,,,0.00,Wunderground v.1.15,2013-01-09 20:40:00,
2013-01-09 15:50:00,45.1,36.6,30.14,SW,236,2.0,2.0,72,0.00,,,0.00,Wunderground v.1.15,2013-01-09 20:50:00,
2013-01-09 16:00:00,45.2,36.7,30.15,SW,230,2.0,2.0,72,0.00,,,0.00,Wunderground v.1.15,2013-01-09 21:00:00,
2013-01-09 16:10:00,45.5,36.6,30.15,SW,218,1.0,2.0,71,0.00,,,0.00,Wunderground v.1.15,2013-01-09 21:10:00,
2013-01-09 16:20:00,46.0,36.8,30.14,SW,234,2.0,2.0,70,0.00,,,0.00,Wunderground v.1.15,2013-01-09 21:20:00,
2013-01-09 16:30:00,45.9,36.7,30.14,WSW,237,2.0,3.0,70,0.00,,,0.00,Wunderground v.1.15,2013-01-09 21:30:00,
2013-01-09 16:40:00,45.6,37.1,30.14,SW,228,1.0,1.0,72,0.00,,,0.00,Wunderground v.1.15,2013-01-09 21:40:00,
2013-01-09 16:50:00,45.4,36.5,30.15,SW,231,1.0,1.0,71,0.00,,,0.00,Wunderground v.1.15,2013-01-09 21:50:00,
2013-01-09 17:00:00,45.2,36.7,30.16,SW,236,2.0,2.0,72,0.00,,,0.00,Wunderground v.1.15,2013-01-09 22:00:00,
2013-01-09 17:10:00,45.4,36.9,30.16,SW,219,2.0,2.0,72,0.00,,,0.00,Wunderground v.1.15,2013-01-09 22:10:00,
2013-01-09 17:20:00,45.7,36.8,30.15,South,188,3.0,3.0,71,0.00,,,0.00,Wunderground v.1.15,2013-01-09 22:20:00,
2013-01-09 17:30:00,45.1,36.3,30.15,SW,221,2.0,2.0,71,0.00,,,0.00,Wunderground v.1.15,2013-01-09 22:30:00,
2013-01-09 17:40:00,44.0,35.9,30.15,WSW,238,1.0,4.0,73,0.00,,,0.00,Wunderground v.1.15,2013-01-09 22:40:00,
2013-01-09 17:50:00,43.4,35.7,30.14,SSW,201,1.0,1.0,74,0.00,,,0.00,Wunderground v.1.15,2013-01-09 22:50:00,
2013-01-09 18:00:00,43.1,35.7,30.15,SW,234,1.0,1.0,75,0.00,,,0.00,Wunderground v.1.15,2013-01-09 23:00:00,
2013-01-09 18:10:00,43.5,36.4,30.15,SSW,201,2.0,4.0,76,0.00,,,0.00,Wunderground v.1.15,2013-01-09 23:10:00,
2013-01-09 18:20:00,44.6,36.8,30.15,SW,232,3.0,3.0,74,0.00,,,0.00,Wunderground v.1.15,2013-01-09 23:20:00,
2013-01-09 18:30:00,45.2,37.4,30.15,South,180,3.0,4.0,74,0.00,,,0.00,Wunderground v.1.15,2013-01-09 23:30:00,
2013-01-09 18:40:00,46.6,37.7,30.15,South,188,7.0,8.0,71,0.00,,,0.00,Wunderground v.1.15,2013-01-09 23:40:00,
2013-01-09 18:50:00,47.0,37.7,30.16,South,177,6.0,10.0,70,0.00,,,0.00,Wunderground v.1.15,2013-01-09 23:50:00,
2013-01-09 19:00:00,46.7,37.8,30.17,SW,219,3.0,3.0,71,0.00,,,0.00,Wunderground v.1.15,2013-01-10 00:00:00,
2013-01-09 19:10:00,46.3,37.4,30.17,South,173,3.0,3.0,71,0.00,,,0.00,Wunderground v.1.15,2013-01-10 00:10:00,
2013-01-09 19:20:00,46.8,37.9,30.16,South,170,6.0,8.0,71,0.00,,,0.00,Wunderground v.1.15,2013-01-10 00:20:00,
2013-01-09 19:30:00,46.6,37.7,30.17,South,173,6.0,6.0,71,0.00,,,0.00,Wunderground v.1.15,2013-01-10 00:30:00,
2013-01-09 19:40:00,46.5,37.6,30.17,South,175,5.0,7.0,71,0.00,,,0.00,Wunderground v.1.15,2013-01-10 00:40:00,
2013-01-09 19:50:00,46.6,38.1,30.17,South,176,5.0,5.0,72,0.00,,,0.00,Wunderground v.1.15,2013-01-10 00:50:00,
2013-01-09 20:00:00,46.7,38.1,30.16,South,174,6.0,6.0,72,0.00,,,0.00,Wunderground v.1.15,2013-01-10 01:00:00,
2013-01-09 20:10:00,46.8,37.9,30.16,SSE,167,5.0,5.0,71,0.00,,,0.00,Wunderground v.1.15,2013-01-10 01:10:00,
2013-01-09 20:20:00,47.1,37.8,30.16,SSW,194,6.0,9.0,70,0.00,,,0.00,Wunderground v.1.15,2013-01-10 01:20:00,
2013-01-09 20:30:00,47.6,37.9,30.16,South,180,6.0,6.0,69,0.00,,,0.00,Wunderground v.1.15,2013-01-10 01:30:00,
2013-01-09 20:40:00,47.7,37.7,30.16,SSE,151,5.0,5.0,68,0.00,,,0.00,Wunderground v.1.15,2013-01-10 01:40:00,
2013-01-09 20:50:00,47.8,37.4,30.16,South,178,5.0,7.0,67,0.00,,,0.00,Wunderground v.1.15,2013-01-10 01:50:00,
2013-01-09 21:00:00,47.9,37.5,30.16,SSW,205,6.0,6.0,67,0.00,,,0.00,Wunderground v.1.15,2013-01-10 02:00:00,
2013-01-09 21:10:00,48.1,37.3,30.16,SSW,196,5.0,8.0,66,0.00,,,0.00,Wunderground v.1.15,2013-01-10 02:10:00,
2013-01-09 21:20:00,48.1,36.9,30.16,SSW,196,6.0,6.0,65,0.00,,,0.00,Wunderground v.1.15,2013-01-10 02:20:00,
2013-01-09 21:30:00,47.7,36.9,30.17,SSE,162,4.0,8.0,66,0.00,,,0.00,Wunderground v.1.15,2013-01-10 02:30:00,
2013-01-09 21:40:00,47.2,36.8,30.17,South,184,4.0,4.0,67,0.00,,,0.00,Wunderground v.1.15,2013-01-10 02:40:00,
2013-01-09 21:50:00,46.7,36.7,30.17,SSE,161,3.0,5.0,68,0.00,,,0.00,Wunderground v.1.15,2013-01-10 02:50:00,
2013-01-09 22:00:00,46.4,36.4,30.17,South,171,3.0,3.0,68,0.00,,,0.00,Wunderground v.1.15,2013-01-10 03:00:00,
2013-01-09 22:10:00,45.3,35.7,30.18,SSE,156,2.0,4.0,69,0.00,,,0.00,Wunderground v.1.15,2013-01-10 03:10:00,
2013-01-09 22:20:00,45.8,35.8,30.18,SW,219,4.0,4.0,68,0.00,,,0.00,Wunderground v.1.15,2013-01-10 03:20:00,
2013-01-09 22:30:00,45.7,36.1,30.18,SSE,162,3.0,3.0,69,0.00,,,0.00,Wunderground v.1.15,2013-01-10 03:30:00,
2013-01-09 22:40:00,45.0,35.4,30.18,South,181,3.0,4.0,69,0.00,,,0.00,Wunderground v.1.15,2013-01-10 03:40:00,
2013-01-09 22:50:00,45.6,35.3,30.18,SSE,160,3.0,3.0,67,0.00,,,0.00,Wunderground v.1.15,2013-01-10 03:50:00,
2013-01-09 23:00:00,44.8,34.9,30.19,SW,228,3.0,3.0,68,0.00,,,0.00,Wunderground v.1.15,2013-01-10 04:00:00,
2013-01-09 23:10:00,43.0,34.2,30.19,SW,225,1.0,3.0,71,0.00,,,0.00,Wunderground v.1.15,2013-01-10 04:10:00,
2013-01-09 23:20:00,43.7,34.6,30.20,SSE,167,2.0,3.0,70,0.00,,,0.00,Wunderground v.1.15,2013-01-10 04:20:00,
2013-01-09 23:30:00,44.8,34.1,30.19,SSW,193,3.0,4.0,66,0.00,,,0.00,Wunderground v.1.15,2013-01-10 04:30:00,
2013-01-09 23:40:00,45.5,34.0,30.20,SW,217,3.0,7.0,64,0.00,,,0.00,Wunderground v.1.15,2013-01-10 04:40:00,
2013-01-09 23:50:00,46.2,33.9,30.20,SSW,197,3.0,3.0,62,0.00,,,0.00,Wunderground v.1.15,2013-01-10 04:50:00,